sensor_id;sensor_type;location;lat;lon;timestamp;temperature;humidity
38684;DHT22;24910;53.248;-6.134;2022-07-05T00:01:15;17.20;66.10
38684;DHT22;24910;53.248;-6.134;2022-07-05T00:03:44;17.20;66.20
38684;DHT22;24910;53.248;-6.134;2022-07-05T00:06:13;17.20;66.30
38684;DHT22;24910;53.248;-6.134;2022-07-05T00:08:42;17.20;66.40
38684;DHT22;24910;53.248;-6.134;2022-07-05T00:11:13;17.20;66.40
38684;DHT22;24910;53.248;-6.134;2022-07-05T00:13:42;17.20;66.40
38684;DHT22;24910;53.248;-6.134;2022-07-05T00:16:11;17.20;66.40
38684;DHT22;24910;53.248;-6.134;2022-07-05T00:18:40;17.30;66.40
38684;DHT22;24910;53.248;-6.134;2022-07-05T00:21:09;17.30;66.40
38684;DHT22;24910;53.248;-6.134;2022-07-05T00:23:38;17.30;66.50
38684;DHT22;24910;53.248;-6.134;2022-07-05T00:26:07;17.30;66.50
38684;DHT22;24910;53.248;-6.134;2022-07-05T00:28:38;17.30;66.50
38684;DHT22;24910;53.248;-6.134;2022-07-05T00:31:07;17.30;66.50
38684;DHT22;24910;53.248;-6.134;2022-07-05T00:33:36;17.30;66.50
38684;DHT22;24910;53.248;-6.134;2022-07-05T00:36:05;17.30;66.50
38684;DHT22;24910;53.248;-6.134;2022-07-05T00:38:35;17.30;66.50
38684;DHT22;24910;53.248;-6.134;2022-07-05T00:41:04;17.30;66.50
38684;DHT22;24910;53.248;-6.134;2022-07-05T00:43:33;17.40;66.50
38684;DHT22;24910;53.248;-6.134;2022-07-05T00:46:04;17.30;66.50
38684;DHT22;24910;53.248;-6.134;2022-07-05T00:48:33;17.30;66.70
38684;DHT22;24910;53.248;-6.134;2022-07-05T00:51:02;17.30;66.90
38684;DHT22;24910;53.248;-6.134;2022-07-05T00:53:31;17.30;66.90
38684;DHT22;24910;53.248;-6.134;2022-07-05T00:56:00;17.30;66.90
38684;DHT22;24910;53.248;-6.134;2022-07-05T00:58:30;17.40;67.10
38684;DHT22;24910;53.248;-6.134;2022-07-05T01:01:04;17.40;67.10
38684;DHT22;24910;53.248;-6.134;2022-07-05T01:03:34;17.40;67.10
38684;DHT22;24910;53.248;-6.134;2022-07-05T01:06:06;17.40;67.10
38684;DHT22;24910;53.248;-6.134;2022-07-05T01:08:38;17.40;67.10
38684;DHT22;24910;53.248;-6.134;2022-07-05T01:11:08;17.40;67.00
38684;DHT22;24910;53.248;-6.134;2022-07-05T01:13:38;17.40;67.10
38684;DHT22;24910;53.248;-6.134;2022-07-05T01:16:09;17.30;67.00
38684;DHT22;24910;53.248;-6.134;2022-07-05T01:18:38;17.30;67.00
38684;DHT22;24910;53.248;-6.134;2022-07-05T01:21:08;17.30;67.00
38684;DHT22;24910;53.248;-6.134;2022-07-05T01:23:42;17.30;67.00
38684;DHT22;24910;53.248;-6.134;2022-07-05T01:26:11;17.40;67.20
38684;DHT22;24910;53.248;-6.134;2022-07-05T01:28:41;17.30;67.20
38684;DHT22;24910;53.248;-6.134;2022-07-05T01:31:10;17.30;67.30
38684;DHT22;24910;53.248;-6.134;2022-07-05T01:33:39;17.30;67.40
38684;DHT22;24910;53.248;-6.134;2022-07-05T01:36:10;17.30;67.70
38684;DHT22;24910;53.248;-6.134;2022-07-05T01:38:42;17.40;68.00
38684;DHT22;24910;53.248;-6.134;2022-07-05T01:41:11;17.40;68.20
38684;DHT22;24910;53.248;-6.134;2022-07-05T01:43:40;17.40;68.40
38684;DHT22;24910;53.248;-6.134;2022-07-05T01:46:09;17.40;68.70
38684;DHT22;24910;53.248;-6.134;2022-07-05T01:48:40;17.50;69.10
38684;DHT22;24910;53.248;-6.134;2022-07-05T01:51:15;17.40;69.60
38684;DHT22;24910;53.248;-6.134;2022-07-05T01:53:50;17.40;70.20
38684;DHT22;24910;53.248;-6.134;2022-07-05T01:56:20;17.40;70.40
38684;DHT22;24910;53.248;-6.134;2022-07-05T01:58:51;17.40;70.70
38684;DHT22;24910;53.248;-6.134;2022-07-05T02:01:32;17.40;71.00
38684;DHT22;24910;53.248;-6.134;2022-07-05T02:04:04;17.40;71.40
38684;DHT22;24910;53.248;-6.134;2022-07-05T02:06:34;17.40;71.40
38684;DHT22;24910;53.248;-6.134;2022-07-05T02:09:07;17.40;71.60
38684;DHT22;24910;53.248;-6.134;2022-07-05T02:11:36;17.40;71.80
38684;DHT22;24910;53.248;-6.134;2022-07-05T02:14:05;17.40;71.90
38684;DHT22;24910;53.248;-6.134;2022-07-05T02:16:38;17.40;72.10
38684;DHT22;24910;53.248;-6.134;2022-07-05T02:19:08;17.40;72.20
38684;DHT22;24910;53.248;-6.134;2022-07-05T02:21:40;17.40;72.30
38684;DHT22;24910;53.248;-6.134;2022-07-05T02:24:16;17.40;72.30
38684;DHT22;24910;53.248;-6.134;2022-07-05T02:26:53;17.40;72.50
38684;DHT22;24910;53.248;-6.134;2022-07-05T02:29:22;17.40;72.50
38684;DHT22;24910;53.248;-6.134;2022-07-05T02:31:52;17.40;72.50
38684;DHT22;24910;53.248;-6.134;2022-07-05T02:34:21;17.40;72.70
38684;DHT22;24910;53.248;-6.134;2022-07-05T02:36:50;17.50;72.90
38684;DHT22;24910;53.248;-6.134;2022-07-05T02:39:21;17.50;72.90
38684;DHT22;24910;53.248;-6.134;2022-07-05T02:41:54;17.50;73.10
38684;DHT22;24910;53.248;-6.134;2022-07-05T02:44:23;17.50;73.00
38684;DHT22;24910;53.248;-6.134;2022-07-05T02:46:53;17.50;72.90
38684;DHT22;24910;53.248;-6.134;2022-07-05T02:49:23;17.50;73.10
38684;DHT22;24910;53.248;-6.134;2022-07-05T02:51:53;17.50;73.10
38684;DHT22;24910;53.248;-6.134;2022-07-05T02:54:24;17.50;73.10
38684;DHT22;24910;53.248;-6.134;2022-07-05T02:56:55;17.50;73.50
38684;DHT22;24910;53.248;-6.134;2022-07-05T02:59:27;17.40;73.60
38684;DHT22;24910;53.248;-6.134;2022-07-05T03:01:58;17.40;73.80
38684;DHT22;24910;53.248;-6.134;2022-07-05T03:04:27;17.40;73.80
38684;DHT22;24910;53.248;-6.134;2022-07-05T03:06:58;17.50;73.50
38684;DHT22;24910;53.248;-6.134;2022-07-05T03:09:31;17.40;73.70
38684;DHT22;24910;53.248;-6.134;2022-07-05T03:12:03;17.40;74.00
38684;DHT22;24910;53.248;-6.134;2022-07-05T03:14:34;17.40;75.00
38684;DHT22;24910;53.248;-6.134;2022-07-05T03:17:03;17.40;74.20
38684;DHT22;24910;53.248;-6.134;2022-07-05T03:19:32;17.40;74.40
38684;DHT22;24910;53.248;-6.134;2022-07-05T03:22:03;17.40;74.40
38684;DHT22;24910;53.248;-6.134;2022-07-05T03:24:35;17.40;74.40
38684;DHT22;24910;53.248;-6.134;2022-07-05T03:27:05;17.40;74.50
38684;DHT22;24910;53.248;-6.134;2022-07-05T03:29:36;17.40;74.60
38684;DHT22;24910;53.248;-6.134;2022-07-05T03:32:06;17.40;74.70
38684;DHT22;24910;53.248;-6.134;2022-07-05T03:34:35;17.40;75.80
38684;DHT22;24910;53.248;-6.134;2022-07-05T03:37:08;17.40;75.00
38684;DHT22;24910;53.248;-6.134;2022-07-05T03:39:38;17.40;75.20
38684;DHT22;24910;53.248;-6.134;2022-07-05T03:42:08;17.40;75.40
38684;DHT22;24910;53.248;-6.134;2022-07-05T03:44:38;17.40;75.40
38684;DHT22;24910;53.248;-6.134;2022-07-05T03:47:08;17.40;75.50
38684;DHT22;24910;53.248;-6.134;2022-07-05T03:49:37;17.40;75.50
38684;DHT22;24910;53.248;-6.134;2022-07-05T03:52:07;17.40;75.60
38684;DHT22;24910;53.248;-6.134;2022-07-05T03:54:37;17.40;75.70
38684;DHT22;24910;53.248;-6.134;2022-07-05T03:57:07;17.40;75.80
38684;DHT22;24910;53.248;-6.134;2022-07-05T03:59:36;17.40;75.80
38684;DHT22;24910;53.248;-6.134;2022-07-05T04:02:05;17.40;75.80
38684;DHT22;24910;53.248;-6.134;2022-07-05T04:04:34;17.40;76.00
38684;DHT22;24910;53.248;-6.134;2022-07-05T04:07:04;17.40;76.00
38684;DHT22;24910;53.248;-6.134;2022-07-05T04:09:34;17.40;76.20
38684;DHT22;24910;53.248;-6.134;2022-07-05T04:12:06;17.40;76.20
38684;DHT22;24910;53.248;-6.134;2022-07-05T04:14:37;17.40;76.30
38684;DHT22;24910;53.248;-6.134;2022-07-05T04:17:06;17.40;76.30
38684;DHT22;24910;53.248;-6.134;2022-07-05T04:19:36;17.40;76.30
38684;DHT22;24910;53.248;-6.134;2022-07-05T04:22:06;17.40;76.50
38684;DHT22;24910;53.248;-6.134;2022-07-05T04:24:36;17.40;76.70
38684;DHT22;24910;53.248;-6.134;2022-07-05T04:27:27;17.40;76.80
38684;DHT22;24910;53.248;-6.134;2022-07-05T04:29:56;17.40;76.90
38684;DHT22;24910;53.248;-6.134;2022-07-05T04:32:25;17.40;77.00
38684;DHT22;24910;53.248;-6.134;2022-07-05T04:34:55;17.40;77.00
38684;DHT22;24910;53.248;-6.134;2022-07-05T04:37:24;17.40;77.10
38684;DHT22;24910;53.248;-6.134;2022-07-05T04:39:54;17.40;77.20
38684;DHT22;24910;53.248;-6.134;2022-07-05T04:42:24;17.40;77.30
38684;DHT22;24910;53.248;-6.134;2022-07-05T04:44:55;17.40;77.50
38684;DHT22;24910;53.248;-6.134;2022-07-05T04:47:24;17.30;77.60
38684;DHT22;24910;53.248;-6.134;2022-07-05T04:49:55;17.30;77.70
38684;DHT22;24910;53.248;-6.134;2022-07-05T04:52:26;17.40;77.80
38684;DHT22;24910;53.248;-6.134;2022-07-05T04:54:55;17.40;77.80
38684;DHT22;24910;53.248;-6.134;2022-07-05T04:57:24;17.40;77.90
38684;DHT22;24910;53.248;-6.134;2022-07-05T04:59:54;17.40;77.90
38684;DHT22;24910;53.248;-6.134;2022-07-05T05:02:23;17.40;78.00
38684;DHT22;24910;53.248;-6.134;2022-07-05T05:04:52;17.30;78.20
38684;DHT22;24910;53.248;-6.134;2022-07-05T05:07:22;17.30;78.30
38684;DHT22;24910;53.248;-6.134;2022-07-05T05:09:51;17.30;78.30
38684;DHT22;24910;53.248;-6.134;2022-07-05T05:12:20;17.40;78.40
38684;DHT22;24910;53.248;-6.134;2022-07-05T05:14:49;17.40;78.50
38684;DHT22;24910;53.248;-6.134;2022-07-05T05:17:19;17.40;78.60
38684;DHT22;24910;53.248;-6.134;2022-07-05T05:19:49;17.40;78.70
38684;DHT22;24910;53.248;-6.134;2022-07-05T05:22:18;17.40;78.90
38684;DHT22;24910;53.248;-6.134;2022-07-05T05:24:47;17.40;78.90
38684;DHT22;24910;53.248;-6.134;2022-07-05T05:27:16;17.40;79.10
38684;DHT22;24910;53.248;-6.134;2022-07-05T05:29:45;17.40;79.30
38684;DHT22;24910;53.248;-6.134;2022-07-05T05:32:14;17.40;79.40
38684;DHT22;24910;53.248;-6.134;2022-07-05T05:34:45;17.40;79.50
38684;DHT22;24910;53.248;-6.134;2022-07-05T05:37:14;17.40;79.70
38684;DHT22;24910;53.248;-6.134;2022-07-05T05:39:43;17.40;79.70
38684;DHT22;24910;53.248;-6.134;2022-07-05T05:42:13;17.40;79.70
38684;DHT22;24910;53.248;-6.134;2022-07-05T05:44:42;17.40;79.70
38684;DHT22;24910;53.248;-6.134;2022-07-05T05:47:11;17.40;79.90
38684;DHT22;24910;53.248;-6.134;2022-07-05T05:49:45;17.40;80.00
38684;DHT22;24910;53.248;-6.134;2022-07-05T05:52:14;17.40;80.30
38684;DHT22;24910;53.248;-6.134;2022-07-05T05:54:43;17.40;80.40
38684;DHT22;24910;53.248;-6.134;2022-07-05T05:57:12;17.40;80.00
38684;DHT22;24910;53.248;-6.134;2022-07-05T05:59:41;17.40;80.30
38684;DHT22;24910;53.248;-6.134;2022-07-05T06:02:11;17.50;80.60
38684;DHT22;24910;53.248;-6.134;2022-07-05T06:04:40;17.40;80.70
38684;DHT22;24910;53.248;-6.134;2022-07-05T06:07:11;17.40;80.80
38684;DHT22;24910;53.248;-6.134;2022-07-05T06:09:40;17.50;80.90
38684;DHT22;24910;53.248;-6.134;2022-07-05T06:12:10;17.50;80.90
38684;DHT22;24910;53.248;-6.134;2022-07-05T06:14:39;17.50;80.90
38684;DHT22;24910;53.248;-6.134;2022-07-05T06:17:08;17.50;80.90
38684;DHT22;24910;53.248;-6.134;2022-07-05T06:19:37;17.50;80.80
38684;DHT22;24910;53.248;-6.134;2022-07-05T06:22:06;17.50;80.70
38684;DHT22;24910;53.248;-6.134;2022-07-05T06:24:37;17.60;80.60
38684;DHT22;24910;53.248;-6.134;2022-07-05T06:27:06;17.60;80.50
38684;DHT22;24910;53.248;-6.134;2022-07-05T06:29:35;17.60;80.50
38684;DHT22;24910;53.248;-6.134;2022-07-05T06:32:05;17.70;80.60
38684;DHT22;24910;53.248;-6.134;2022-07-05T06:34:34;17.70;80.60
38684;DHT22;24910;53.248;-6.134;2022-07-05T06:37:04;17.70;80.70
38684;DHT22;24910;53.248;-6.134;2022-07-05T06:39:33;17.70;80.70
38684;DHT22;24910;53.248;-6.134;2022-07-05T06:42:05;17.70;80.60
38684;DHT22;24910;53.248;-6.134;2022-07-05T06:44:34;17.80;81.60
38684;DHT22;24910;53.248;-6.134;2022-07-05T06:47:03;17.90;80.70
38684;DHT22;24910;53.248;-6.134;2022-07-05T06:49:33;17.90;80.40
38684;DHT22;24910;53.248;-6.134;2022-07-05T06:52:02;17.90;80.30
38684;DHT22;24910;53.248;-6.134;2022-07-05T06:54:31;18.00;80.20
38684;DHT22;24910;53.248;-6.134;2022-07-05T06:57:20;18.00;80.00
38684;DHT22;24910;53.248;-6.134;2022-07-05T06:59:59;18.00;79.90
38684;DHT22;24910;53.248;-6.134;2022-07-05T07:02:29;18.00;79.70
38684;DHT22;24910;53.248;-6.134;2022-07-05T07:04:58;18.00;79.50
38684;DHT22;24910;53.248;-6.134;2022-07-05T07:07:36;18.00;79.50
38684;DHT22;24910;53.248;-6.134;2022-07-05T07:10:23;18.00;79.50
38684;DHT22;24910;53.248;-6.134;2022-07-05T07:12:57;18.00;79.40
38684;DHT22;24910;53.248;-6.134;2022-07-05T07:15:27;18.00;79.50
38684;DHT22;24910;53.248;-6.134;2022-07-05T07:17:57;18.00;79.70
38684;DHT22;24910;53.248;-6.134;2022-07-05T07:20:27;18.00;79.80
38684;DHT22;24910;53.248;-6.134;2022-07-05T07:22:56;18.00;79.90
38684;DHT22;24910;53.248;-6.134;2022-07-05T07:25:25;18.00;80.20
38684;DHT22;24910;53.248;-6.134;2022-07-05T07:27:55;18.00;80.30
38684;DHT22;24910;53.248;-6.134;2022-07-05T07:30:27;18.00;80.40
38684;DHT22;24910;53.248;-6.134;2022-07-05T07:32:56;18.10;80.40
38684;DHT22;24910;53.248;-6.134;2022-07-05T07:35:25;18.10;80.30
38684;DHT22;24910;53.248;-6.134;2022-07-05T07:37:54;18.20;80.20
38684;DHT22;24910;53.248;-6.134;2022-07-05T07:40:24;18.20;80.20
38684;DHT22;24910;53.248;-6.134;2022-07-05T07:42:53;18.20;80.00
38684;DHT22;24910;53.248;-6.134;2022-07-05T07:45:22;18.30;79.90
38684;DHT22;24910;53.248;-6.134;2022-07-05T07:47:52;18.40;79.70
38684;DHT22;24910;53.248;-6.134;2022-07-05T07:50:21;18.30;79.50
38684;DHT22;24910;53.248;-6.134;2022-07-05T07:52:51;18.40;79.30
38684;DHT22;24910;53.248;-6.134;2022-07-05T07:55:20;18.50;79.20
38684;DHT22;24910;53.248;-6.134;2022-07-05T07:57:49;18.60;79.00
38684;DHT22;24910;53.248;-6.134;2022-07-05T08:00:18;18.60;78.80
38684;DHT22;24910;53.248;-6.134;2022-07-05T08:02:47;18.70;78.70
38684;DHT22;24910;53.248;-6.134;2022-07-05T08:05:18;18.80;78.50
38684;DHT22;24910;53.248;-6.134;2022-07-05T08:07:47;18.90;78.20
38684;DHT22;24910;53.248;-6.134;2022-07-05T08:10:16;19.00;77.80
38684;DHT22;24910;53.248;-6.134;2022-07-05T08:12:45;19.10;77.60
38684;DHT22;24910;53.248;-6.134;2022-07-05T08:15:14;19.10;77.30
38684;DHT22;24910;53.248;-6.134;2022-07-05T08:17:43;19.20;77.10
38684;DHT22;24910;53.248;-6.134;2022-07-05T08:20:34;19.20;76.80
38684;DHT22;24910;53.248;-6.134;2022-07-05T08:23:21;19.20;76.50
38684;DHT22;24910;53.248;-6.134;2022-07-05T08:25:58;19.30;76.40
38684;DHT22;24910;53.248;-6.134;2022-07-05T08:28:28;19.30;76.10
38684;DHT22;24910;53.248;-6.134;2022-07-05T08:30:57;19.30;75.80
38684;DHT22;24910;53.248;-6.134;2022-07-05T08:33:26;19.40;75.50
38684;DHT22;24910;53.248;-6.134;2022-07-05T08:35:57;19.40;75.30
38684;DHT22;24910;53.248;-6.134;2022-07-05T08:38:26;19.40;75.10
38684;DHT22;24910;53.248;-6.134;2022-07-05T08:40:56;19.40;74.90
38684;DHT22;24910;53.248;-6.134;2022-07-05T08:43:26;19.40;74.70
38684;DHT22;24910;53.248;-6.134;2022-07-05T08:45:57;19.50;74.50
38684;DHT22;24910;53.248;-6.134;2022-07-05T08:48:27;19.40;74.30
38684;DHT22;24910;53.248;-6.134;2022-07-05T08:50:59;19.40;74.30
38684;DHT22;24910;53.248;-6.134;2022-07-05T08:53:28;19.30;74.50
38684;DHT22;24910;53.248;-6.134;2022-07-05T08:55:59;19.40;74.40
38684;DHT22;24910;53.248;-6.134;2022-07-05T08:58:28;19.40;74.30
38684;DHT22;24910;53.248;-6.134;2022-07-05T09:00:57;19.40;73.90
38684;DHT22;24910;53.248;-6.134;2022-07-05T09:03:31;19.50;73.70
38684;DHT22;24910;53.248;-6.134;2022-07-05T09:06:03;19.50;73.50
38684;DHT22;24910;53.248;-6.134;2022-07-05T09:08:35;19.60;73.40
38684;DHT22;24910;53.248;-6.134;2022-07-05T09:11:08;19.70;73.30
38684;DHT22;24910;53.248;-6.134;2022-07-05T09:13:40;19.60;73.00
38684;DHT22;24910;53.248;-6.134;2022-07-05T09:16:29;19.60;73.00
38684;DHT22;24910;53.248;-6.134;2022-07-05T09:19:05;19.70;73.10
38684;DHT22;24910;53.248;-6.134;2022-07-05T09:21:35;19.70;73.00
38684;DHT22;24910;53.248;-6.134;2022-07-05T09:24:07;19.80;73.20
38684;DHT22;24910;53.248;-6.134;2022-07-05T09:26:36;19.70;73.30
38684;DHT22;24910;53.248;-6.134;2022-07-05T09:29:13;19.70;73.40
38684;DHT22;24910;53.248;-6.134;2022-07-05T09:32:04;19.60;73.30
38684;DHT22;24910;53.248;-6.134;2022-07-05T09:34:33;19.60;73.50
38684;DHT22;24910;53.248;-6.134;2022-07-05T09:37:04;19.70;73.60
38684;DHT22;24910;53.248;-6.134;2022-07-05T09:39:39;19.70;73.70
38684;DHT22;24910;53.248;-6.134;2022-07-05T09:42:15;19.90;74.00
38684;DHT22;24910;53.248;-6.134;2022-07-05T09:44:47;20.20;73.70
38684;DHT22;24910;53.248;-6.134;2022-07-05T09:47:17;20.30;73.10
38684;DHT22;24910;53.248;-6.134;2022-07-05T09:49:48;20.50;72.60
38684;DHT22;24910;53.248;-6.134;2022-07-05T09:52:40;20.70;72.00
38684;DHT22;24910;53.248;-6.134;2022-07-05T09:55:10;20.90;71.50
38684;DHT22;24910;53.248;-6.134;2022-07-05T09:57:41;21.20;71.10
38684;DHT22;24910;53.248;-6.134;2022-07-05T10:00:12;21.30;70.60
38684;DHT22;24910;53.248;-6.134;2022-07-05T10:02:43;21.30;70.20
38684;DHT22;24910;53.248;-6.134;2022-07-05T10:05:14;21.30;70.30
38684;DHT22;24910;53.248;-6.134;2022-07-05T10:07:46;21.30;70.20
38684;DHT22;24910;53.248;-6.134;2022-07-05T10:10:17;21.30;69.80
38684;DHT22;24910;53.248;-6.134;2022-07-05T10:12:47;21.40;69.50
38684;DHT22;24910;53.248;-6.134;2022-07-05T10:15:19;21.50;69.30
38684;DHT22;24910;53.248;-6.134;2022-07-05T10:17:53;21.40;69.20
38684;DHT22;24910;53.248;-6.134;2022-07-05T10:20:25;21.40;69.20
38684;DHT22;24910;53.248;-6.134;2022-07-05T10:22:58;21.30;69.10
38684;DHT22;24910;53.248;-6.134;2022-07-05T10:25:35;21.20;69.20
38684;DHT22;24910;53.248;-6.134;2022-07-05T10:28:05;21.20;69.20
38684;DHT22;24910;53.248;-6.134;2022-07-05T10:30:35;21.30;69.30
38684;DHT22;24910;53.248;-6.134;2022-07-05T10:33:06;21.30;68.60
38684;DHT22;24910;53.248;-6.134;2022-07-05T10:35:36;21.40;68.20
38684;DHT22;24910;53.248;-6.134;2022-07-05T10:38:08;21.50;68.10
38684;DHT22;24910;53.248;-6.134;2022-07-05T10:40:39;21.60;68.00
38684;DHT22;24910;53.248;-6.134;2022-07-05T10:43:10;21.70;67.80
38684;DHT22;24910;53.248;-6.134;2022-07-05T10:45:47;21.70;67.50
38684;DHT22;24910;53.248;-6.134;2022-07-05T10:48:18;21.60;67.30
38684;DHT22;24910;53.248;-6.134;2022-07-05T10:50:52;21.60;67.50
38684;DHT22;24910;53.248;-6.134;2022-07-05T10:53:24;21.50;67.90
38684;DHT22;24910;53.248;-6.134;2022-07-05T10:55:56;21.50;68.40
38684;DHT22;24910;53.248;-6.134;2022-07-05T10:58:30;21.50;68.90
38684;DHT22;24910;53.248;-6.134;2022-07-05T11:01:31;21.50;69.20
38684;DHT22;24910;53.248;-6.134;2022-07-05T11:04:26;21.50;69.20
38684;DHT22;24910;53.248;-6.134;2022-07-05T11:07:02;21.50;69.00
38684;DHT22;24910;53.248;-6.134;2022-07-05T11:09:33;21.40;68.90
38684;DHT22;24910;53.248;-6.134;2022-07-05T11:12:12;21.40;68.70
38684;DHT22;24910;53.248;-6.134;2022-07-05T11:15:04;21.30;68.50
38684;DHT22;24910;53.248;-6.134;2022-07-05T11:17:34;21.20;68.90
38684;DHT22;24910;53.248;-6.134;2022-07-05T11:20:31;21.20;68.90
38684;DHT22;24910;53.248;-6.134;2022-07-05T11:23:06;21.20;69.00
38684;DHT22;24910;53.248;-6.134;2022-07-05T11:25:38;21.20;69.20
38684;DHT22;24910;53.248;-6.134;2022-07-05T11:28:16;21.20;69.30
38684;DHT22;24910;53.248;-6.134;2022-07-05T11:30:47;21.20;69.40
38684;DHT22;24910;53.248;-6.134;2022-07-05T11:33:32;21.30;69.40
38684;DHT22;24910;53.248;-6.134;2022-07-05T11:36:02;21.30;69.40
38684;DHT22;24910;53.248;-6.134;2022-07-05T11:38:32;21.30;69.30
38684;DHT22;24910;53.248;-6.134;2022-07-05T11:41:22;21.30;69.30
38684;DHT22;24910;53.248;-6.134;2022-07-05T11:43:57;21.30;69.10
38684;DHT22;24910;53.248;-6.134;2022-07-05T11:46:27;21.40;69.50
38684;DHT22;24910;53.248;-6.134;2022-07-05T11:49:19;21.50;69.90
38684;DHT22;24910;53.248;-6.134;2022-07-05T11:51:59;21.70;69.50
38684;DHT22;24910;53.248;-6.134;2022-07-05T11:54:31;21.70;69.10
38684;DHT22;24910;53.248;-6.134;2022-07-05T11:57:02;21.70;68.40
38684;DHT22;24910;53.248;-6.134;2022-07-05T11:59:37;21.60;68.10
38684;DHT22;24910;53.248;-6.134;2022-07-05T12:02:09;21.70;68.30
38684;DHT22;24910;53.248;-6.134;2022-07-05T12:04:38;21.70;68.30
38684;DHT22;24910;53.248;-6.134;2022-07-05T12:07:08;21.80;68.30
38684;DHT22;24910;53.248;-6.134;2022-07-05T12:09:37;22.00;68.40
38684;DHT22;24910;53.248;-6.134;2022-07-05T12:12:25;22.20;68.40
38684;DHT22;24910;53.248;-6.134;2022-07-05T12:15:13;22.30;68.10
38684;DHT22;24910;53.248;-6.134;2022-07-05T12:17:44;22.40;67.90
38684;DHT22;24910;53.248;-6.134;2022-07-05T12:20:19;22.50;67.40
38684;DHT22;24910;53.248;-6.134;2022-07-05T12:22:49;22.40;67.00
38684;DHT22;24910;53.248;-6.134;2022-07-05T12:25:21;22.40;66.90
38684;DHT22;24910;53.248;-6.134;2022-07-05T12:27:53;22.40;66.80
38684;DHT22;24910;53.248;-6.134;2022-07-05T12:30:23;22.30;66.70
38684;DHT22;24910;53.248;-6.134;2022-07-05T12:32:57;22.10;66.60
38684;DHT22;24910;53.248;-6.134;2022-07-05T12:35:34;22.10;66.80
38684;DHT22;24910;53.248;-6.134;2022-07-05T12:38:05;22.00;66.80
38684;DHT22;24910;53.248;-6.134;2022-07-05T12:40:35;22.00;66.90
38684;DHT22;24910;53.248;-6.134;2022-07-05T12:43:09;22.00;67.20
38684;DHT22;24910;53.248;-6.134;2022-07-05T12:45:39;21.90;67.20
38684;DHT22;24910;53.248;-6.134;2022-07-05T12:48:10;22.00;67.50
38684;DHT22;24910;53.248;-6.134;2022-07-05T12:50:48;21.90;67.30
38684;DHT22;24910;53.248;-6.134;2022-07-05T12:53:47;22.00;67.40
38684;DHT22;24910;53.248;-6.134;2022-07-05T12:56:34;22.00;67.30
38684;DHT22;24910;53.248;-6.134;2022-07-05T12:59:57;22.10;67.40
38684;DHT22;24910;53.248;-6.134;2022-07-05T13:02:36;22.20;67.30
38684;DHT22;24910;53.248;-6.134;2022-07-05T13:05:07;22.30;66.80
38684;DHT22;24910;53.248;-6.134;2022-07-05T13:07:43;22.20;66.40
38684;DHT22;24910;53.248;-6.134;2022-07-05T13:10:21;22.20;66.20
38684;DHT22;24910;53.248;-6.134;2022-07-05T13:12:51;22.30;66.50
38684;DHT22;24910;53.248;-6.134;2022-07-05T13:15:21;22.30;66.40
38684;DHT22;24910;53.248;-6.134;2022-07-05T13:17:51;22.40;66.40
38684;DHT22;24910;53.248;-6.134;2022-07-05T13:20:20;22.50;66.60
38684;DHT22;24910;53.248;-6.134;2022-07-05T13:22:50;22.50;66.40
38684;DHT22;24910;53.248;-6.134;2022-07-05T13:25:19;22.60;66.00
38684;DHT22;24910;53.248;-6.134;2022-07-05T13:27:49;22.70;65.60
38684;DHT22;24910;53.248;-6.134;2022-07-05T13:30:22;22.70;65.10
38684;DHT22;24910;53.248;-6.134;2022-07-05T13:32:51;22.80;64.80
38684;DHT22;24910;53.248;-6.134;2022-07-05T13:35:20;22.80;64.50
38684;DHT22;24910;53.248;-6.134;2022-07-05T13:37:49;22.80;64.50
38684;DHT22;24910;53.248;-6.134;2022-07-05T13:40:18;22.90;64.40
38684;DHT22;24910;53.248;-6.134;2022-07-05T13:42:47;22.90;63.70
38684;DHT22;24910;53.248;-6.134;2022-07-05T13:45:18;22.90;63.30
38684;DHT22;24910;53.248;-6.134;2022-07-05T13:47:55;22.80;63.20
38684;DHT22;24910;53.248;-6.134;2022-07-05T13:50:24;22.80;63.30
38684;DHT22;24910;53.248;-6.134;2022-07-05T13:53:03;22.80;63.20
38684;DHT22;24910;53.248;-6.134;2022-07-05T13:55:32;22.90;63.40
38684;DHT22;24910;53.248;-6.134;2022-07-05T13:58:02;22.90;63.10
38684;DHT22;24910;53.248;-6.134;2022-07-05T14:00:31;22.80;63.20
38684;DHT22;24910;53.248;-6.134;2022-07-05T14:03:01;22.80;62.90
38684;DHT22;24910;53.248;-6.134;2022-07-05T14:05:33;22.80;62.90
38684;DHT22;24910;53.248;-6.134;2022-07-05T14:08:02;22.80;63.10
38684;DHT22;24910;53.248;-6.134;2022-07-05T14:10:32;22.90;63.20
38684;DHT22;24910;53.248;-6.134;2022-07-05T14:13:01;23.00;62.70
38684;DHT22;24910;53.248;-6.134;2022-07-05T14:15:30;22.90;62.80
38684;DHT22;24910;53.248;-6.134;2022-07-05T14:18:00;22.80;63.20
38684;DHT22;24910;53.248;-6.134;2022-07-05T14:20:30;22.60;63.60
38684;DHT22;24910;53.248;-6.134;2022-07-05T14:22:59;22.30;64.30
38684;DHT22;24910;53.248;-6.134;2022-07-05T14:25:28;22.20;64.80
38684;DHT22;24910;53.248;-6.134;2022-07-05T14:27:57;22.10;65.20
38684;DHT22;24910;53.248;-6.134;2022-07-05T14:30:27;22.00;65.50
38684;DHT22;24910;53.248;-6.134;2022-07-05T14:32:56;21.90;65.80
38684;DHT22;24910;53.248;-6.134;2022-07-05T14:35:26;21.80;66.20
38684;DHT22;24910;53.248;-6.134;2022-07-05T14:37:55;21.60;66.10
38684;DHT22;24910;53.248;-6.134;2022-07-05T14:40:25;21.30;66.50
38684;DHT22;24910;53.248;-6.134;2022-07-05T14:42:54;21.10;67.10
38684;DHT22;24910;53.248;-6.134;2022-07-05T14:45:26;21.10;67.60
38684;DHT22;24910;53.248;-6.134;2022-07-05T14:47:56;20.90;67.90
38684;DHT22;24910;53.248;-6.134;2022-07-05T14:50:26;20.80;68.30
38684;DHT22;24910;53.248;-6.134;2022-07-05T14:52:55;20.80;68.40
38684;DHT22;24910;53.248;-6.134;2022-07-05T14:55:24;20.70;68.60
38684;DHT22;24910;53.248;-6.134;2022-07-05T14:57:53;20.70;68.90
38684;DHT22;24910;53.248;-6.134;2022-07-05T15:00:23;20.60;69.10
38684;DHT22;24910;53.248;-6.134;2022-07-05T15:02:52;20.50;69.50
38684;DHT22;24910;53.248;-6.134;2022-07-05T15:05:28;20.40;69.80
38684;DHT22;24910;53.248;-6.134;2022-07-05T15:07:58;20.40;70.10
38684;DHT22;24910;53.248;-6.134;2022-07-05T15:10:27;20.30;70.30
38684;DHT22;24910;53.248;-6.134;2022-07-05T15:13:00;20.30;70.40
38684;DHT22;24910;53.248;-6.134;2022-07-05T15:15:29;20.20;70.60
38684;DHT22;24910;53.248;-6.134;2022-07-05T15:17:59;20.10;70.90
38684;DHT22;24910;53.248;-6.134;2022-07-05T15:20:30;20.10;70.90
38684;DHT22;24910;53.248;-6.134;2022-07-05T15:23:02;20.10;71.10
38684;DHT22;24910;53.248;-6.134;2022-07-05T15:25:31;20.00;71.30
38684;DHT22;24910;53.248;-6.134;2022-07-05T15:28:00;19.90;71.70
38684;DHT22;24910;53.248;-6.134;2022-07-05T15:30:29;20.00;71.90
38684;DHT22;24910;53.248;-6.134;2022-07-05T15:32:58;20.00;72.10
38684;DHT22;24910;53.248;-6.134;2022-07-05T15:35:27;20.10;72.20
38684;DHT22;24910;53.248;-6.134;2022-07-05T15:37:58;20.10;72.20
38684;DHT22;24910;53.248;-6.134;2022-07-05T15:40:27;20.10;72.20
38684;DHT22;24910;53.248;-6.134;2022-07-05T15:42:57;20.10;72.40